sensor_id;sensor_type;location;lat;lon;timestamp;P1;durP1;ratioP1;P2;durP2;ratioP2
16101;SDS011;56411;52.964;10.540;2023-04-15T00:01:21;19.60;;;10.60;;
16101;SDS011;56411;52.964;10.540;2023-04-15T00:03:51;23.30;;;11.93;;
16101;SDS011;56411;52.964;10.540;2023-04-15T00:06:19;22.10;;;11.23;;
16101;SDS011;56411;52.964;10.540;2023-04-15T00:08:46;21.63;;;11.17;;
16101;SDS011;56411;52.964;10.540;2023-04-15T00:11:15;22.73;;;12.23;;
16101;SDS011;56411;52.964;10.540;2023-04-15T00:13:42;21.57;;;11.77;;
16101;SDS011;56411;52.964;10.540;2023-04-15T00:16:09;20.57;;;11.57;;
16101;SDS011;56411;52.964;10.540;2023-04-15T00:18:37;23.20;;;12.10;;
16101;SDS011;56411;52.964;10.540;2023-04-15T00:21:06;22.47;;;12.07;;
16101;SDS011;56411;52.964;10.540;2023-04-15T00:23:33;21.67;;;11.57;;
16101;SDS011;56411;52.964;10.540;2023-04-15T00:26:01;23.17;;;12.03;;
16101;SDS011;56411;52.964;10.540;2023-04-15T00:28:28;21.27;;;11.37;;
16101;SDS011;56411;52.964;10.540;2023-04-15T00:30:56;22.63;;;11.53;;
16101;SDS011;56411;52.964;10.540;2023-04-15T00:33:23;22.27;;;11.13;;
16101;SDS011;56411;52.964;10.540;2023-04-15T00:35:50;22.73;;;11.80;;
16101;SDS011;56411;52.964;10.540;2023-04-15T00:38:19;21.00;;;11.60;;
16101;SDS011;56411;52.964;10.540;2023-04-15T00:40:46;22.93;;;12.73;;
16101;SDS011;56411;52.964;10.540;2023-04-15T00:43:13;22.20;;;12.03;;
16101;SDS011;56411;52.964;10.540;2023-04-15T00:45:40;23.33;;;11.60;;
16101;SDS011;56411;52.964;10.540;2023-04-15T00:48:08;23.57;;;12.00;;
16101;SDS011;56411;52.964;10.540;2023-04-15T00:50:35;24.13;;;12.40;;
16101;SDS011;56411;52.964;10.540;2023-04-15T00:53:02;23.53;;;11.87;;
16101;SDS011;56411;52.964;10.540;2023-04-15T00:55:31;22.87;;;12.40;;
16101;SDS011;56411;52.964;10.540;2023-04-15T00:57:58;23.33;;;11.73;;
16101;SDS011;56411;52.964;10.540;2023-04-15T01:00:25;22.17;;;11.30;;
16101;SDS011;56411;52.964;10.540;2023-04-15T01:02:53;25.93;;;13.63;;
16101;SDS011;56411;52.964;10.540;2023-04-15T01:05:20;23.07;;;12.07;;
16101;SDS011;56411;52.964;10.540;2023-04-15T01:07:47;21.63;;;11.53;;
16101;SDS011;56411;52.964;10.540;2023-04-15T01:10:15;21.83;;;11.67;;
16101;SDS011;56411;52.964;10.540;2023-04-15T01:12:44;21.70;;;10.40;;
16101;SDS011;56411;52.964;10.540;2023-04-15T01:15:12;20.20;;;10.83;;
16101;SDS011;56411;52.964;10.540;2023-04-15T01:17:40;20.57;;;11.10;;
16101;SDS011;56411;52.964;10.540;2023-04-15T01:20:07;20.57;;;11.70;;
16101;SDS011;56411;52.964;10.540;2023-04-15T01:22:36;20.43;;;10.37;;
16101;SDS011;56411;52.964;10.540;2023-04-15T01:25:05;20.33;;;10.57;;
16101;SDS011;56411;52.964;10.540;2023-04-15T01:27:37;21.87;;;11.23;;
16101;SDS011;56411;52.964;10.540;2023-04-15T01:30:06;22.00;;;10.97;;
16101;SDS011;56411;52.964;10.540;2023-04-15T01:32:35;18.77;;;10.07;;
16101;SDS011;56411;52.964;10.540;2023-04-15T01:35:03;18.17;;;9.30;;
16101;SDS011;56411;52.964;10.540;2023-04-15T01:37:30;19.73;;;9.47;;
16101;SDS011;56411;52.964;10.540;2023-04-15T01:39:58;18.20;;;9.20;;
16101;SDS011;56411;52.964;10.540;2023-04-15T01:42:25;20.37;;;10.00;;
16101;SDS011;56411;52.964;10.540;2023-04-15T01:44:54;19.37;;;10.20;;
16101;SDS011;56411;52.964;10.540;2023-04-15T01:47:21;20.67;;;10.53;;
16101;SDS011;56411;52.964;10.540;2023-04-15T01:49:48;18.40;;;10.03;;
16101;SDS011;56411;52.964;10.540;2023-04-15T01:52:15;19.90;;;9.53;;
16101;SDS011;56411;52.964;10.540;2023-04-15T01:54:43;17.23;;;9.30;;
16101;SDS011;56411;52.964;10.540;2023-04-15T01:57:10;17.90;;;9.40;;
16101;SDS011;56411;52.964;10.540;2023-04-15T01:59:38;17.67;;;9.07;;
16101;SDS011;56411;52.964;10.540;2023-04-15T02:02:07;18.83;;;9.23;;
16101;SDS011;56411;52.964;10.540;2023-04-15T02:04:35;16.93;;;9.10;;
16101;SDS011;56411;52.964;10.540;2023-04-15T02:07:02;18.47;;;9.60;;
16101;SDS011;56411;52.964;10.540;2023-04-15T02:09:30;18.77;;;9.50;;
16101;SDS011;56411;52.964;10.540;2023-04-15T02:12:00;16.87;;;9.10;;
16101;SDS011;56411;52.964;10.540;2023-04-15T02:14:27;17.73;;;8.60;;
16101;SDS011;56411;52.964;10.540;2023-04-15T02:16:54;18.13;;;9.17;;
16101;SDS011;56411;52.964;10.540;2023-04-15T02:19:23;17.60;;;9.43;;
16101;SDS011;56411;52.964;10.540;2023-04-15T02:21:50;19.70;;;9.87;;
16101;SDS011;56411;52.964;10.540;2023-04-15T02:24:17;18.17;;;9.80;;
16101;SDS011;56411;52.964;10.540;2023-04-15T02:26:45;18.23;;;9.83;;
16101;SDS011;56411;52.964;10.540;2023-04-15T02:29:12;18.40;;;9.80;;
16101;SDS011;56411;52.964;10.540;2023-04-15T02:31:39;18.83;;;9.70;;
16101;SDS011;56411;52.964;10.540;2023-04-15T02:34:07;18.60;;;9.63;;
16101;SDS011;56411;52.964;10.540;2023-04-15T02:36:36;19.87;;;10.23;;
16101;SDS011;56411;52.964;10.540;2023-04-15T02:39:04;18.90;;;10.23;;
16101;SDS011;56411;52.964;10.540;2023-04-15T02:41:32;18.93;;;10.07;;
16101;SDS011;56411;52.964;10.540;2023-04-15T02:43:59;20.87;;;9.73;;
16101;SDS011;56411;52.964;10.540;2023-04-15T02:46:26;18.53;;;9.87;;
16101;SDS011;56411;52.964;10.540;2023-04-15T02:48:53;19.83;;;10.30;;
16101;SDS011;56411;52.964;10.540;2023-04-15T02:51:20;19.60;;;10.20;;
16101;SDS011;56411;52.964;10.540;2023-04-15T02:53:49;20.10;;;10.23;;
16101;SDS011;56411;52.964;10.540;2023-04-15T02:56:16;18.07;;;9.23;;
16101;SDS011;56411;52.964;10.540;2023-04-15T02:58:43;17.50;;;9.27;;
16101;SDS011;56411;52.964;10.540;2023-04-15T03:01:10;17.73;;;9.03;;
16101;SDS011;56411;52.964;10.540;2023-04-15T03:03:38;18.87;;;9.90;;
16101;SDS011;56411;52.964;10.540;2023-04-15T03:06:05;17.50;;;8.67;;
16101;SDS011;56411;52.964;10.540;2023-04-15T03:08:33;17.83;;;9.83;;
16101;SDS011;56411;52.964;10.540;2023-04-15T03:11:02;18.20;;;9.40;;
16101;SDS011;56411;52.964;10.540;2023-04-15T03:13:29;20.13;;;10.17;;
16101;SDS011;56411;52.964;10.540;2023-04-15T03:15:56;17.30;;;8.70;;
16101;SDS011;56411;52.964;10.540;2023-04-15T03:18:23;18.27;;;9.97;;
16101;SDS011;56411;52.964;10.540;2023-04-15T03:20:51;18.97;;;9.80;;
16101;SDS011;56411;52.964;10.540;2023-04-15T03:23:18;19.00;;;9.67;;
16101;SDS011;56411;52.964;10.540;2023-04-15T03:25:45;18.17;;;8.90;;
16101;SDS011;56411;52.964;10.540;2023-04-15T03:28:14;17.87;;;9.07;;
16101;SDS011;56411;52.964;10.540;2023-04-15T03:30:41;18.00;;;9.63;;
16101;SDS011;56411;52.964;10.540;2023-04-15T03:33:08;17.20;;;8.40;;
16101;SDS011;56411;52.964;10.540;2023-04-15T03:35:35;17.20;;;9.17;;
16101;SDS011;56411;52.964;10.540;2023-04-15T03:38:02;16.67;;;9.13;;
16101;SDS011;56411;52.964;10.540;2023-04-15T03:40:30;17.83;;;9.03;;
16101;SDS011;56411;52.964;10.540;2023-04-15T03:42:57;19.23;;;9.97;;
16101;SDS011;56411;52.964;10.540;2023-04-15T03:45:25;19.87;;;9.73;;
16101;SDS011;56411;52.964;10.540;2023-04-15T03:47:52;19.53;;;9.83;;
16101;SDS011;56411;52.964;10.540;2023-04-15T03:50:19;18.13;;;9.90;;
16101;SDS011;56411;52.964;10.540;2023-04-15T03:52:46;18.93;;;9.93;;
16101;SDS011;56411;52.964;10.540;2023-04-15T03:55:13;18.73;;;10.23;;
16101;SDS011;56411;52.964;10.540;2023-04-15T03:57:41;21.63;;;11.13;;
16101;SDS011;56411;52.964;10.540;2023-04-15T04:00:08;21.80;;;11.53;;
16101;SDS011;56411;52.964;10.540;2023-04-15T04:02:37;20.30;;;10.50;;
16101;SDS011;56411;52.964;10.540;2023-04-15T04:05:04;22.70;;;11.80;;
16101;SDS011;56411;52.964;10.540;2023-04-15T04:07:32;20.10;;;10.17;;
16101;SDS011;56411;52.964;10.540;2023-04-15T04:09:59;22.17;;;10.87;;
16101;SDS011;56411;52.964;10.540;2023-04-15T04:12:27;22.83;;;11.40;;
16101;SDS011;56411;52.964;10.540;2023-04-15T04:14:54;22.77;;;11.37;;
16101;SDS011;56411;52.964;10.540;2023-04-15T04:17:22;21.97;;;11.53;;
16101;SDS011;56411;52.964;10.540;2023-04-15T04:19:50;25.23;;;13.07;;
16101;SDS011;56411;52.964;10.540;2023-04-15T04:22:20;25.53;;;14.00;;
16101;SDS011;56411;52.964;10.540;2023-04-15T04:24:48;25.73;;;13.00;;
16101;SDS011;56411;52.964;10.540;2023-04-15T04:27:15;25.80;;;13.07;;
16101;SDS011;56411;52.964;10.540;2023-04-15T04:29:42;25.33;;;13.80;;
16101;SDS011;56411;52.964;10.540;2023-04-15T04:32:11;27.57;;;14.57;;
16101;SDS011;56411;52.964;10.540;2023-04-15T04:34:38;29.77;;;15.33;;
16101;SDS011;56411;52.964;10.540;2023-04-15T04:37:07;30.60;;;15.77;;
16101;SDS011;56411;52.964;10.540;2023-04-15T04:39:34;32.23;;;16.27;;
16101;SDS011;56411;52.964;10.540;2023-04-15T04:42:01;32.23;;;15.57;;
16101;SDS011;56411;52.964;10.540;2023-04-15T04:44:28;32.67;;;16.63;;
16101;SDS011;56411;52.964;10.540;2023-04-15T04:46:55;33.13;;;16.60;;
16101;SDS011;56411;52.964;10.540;2023-04-15T04:49:23;33.10;;;17.10;;
16101;SDS011;56411;52.964;10.540;2023-04-15T04:51:50;31.77;;;15.80;;
16101;SDS011;56411;52.964;10.540;2023-04-15T04:54:19;30.33;;;15.17;;
16101;SDS011;56411;52.964;10.540;2023-04-15T04:56:47;31.73;;;17.00;;
16101;SDS011;56411;52.964;10.540;2023-04-15T04:59:15;31.27;;;16.20;;
16101;SDS011;56411;52.964;10.540;2023-04-15T05:01:42;35.43;;;16.97;;
16101;SDS011;56411;52.964;10.540;2023-04-15T05:04:09;30.47;;;15.80;;
16101;SDS011;56411;52.964;10.540;2023-04-15T05:06:36;35.10;;;17.57;;
16101;SDS011;56411;52.964;10.540;2023-04-15T05:09:03;31.50;;;17.00;;
16101;SDS011;56411;52.964;10.540;2023-04-15T05:11:33;33.00;;;17.20;;
16101;SDS011;56411;52.964;10.540;2023-04-15T05:14:00;33.27;;;16.53;;
16101;SDS011;56411;52.964;10.540;2023-04-15T05:16:27;32.33;;;16.53;;
16101;SDS011;56411;52.964;10.540;2023-04-15T05:18:54;33.37;;;14.47;;
16101;SDS011;56411;52.964;10.540;2023-04-15T05:21:21;31.47;;;15.33;;
16101;SDS011;56411;52.964;10.540;2023-04-15T05:23:50;29.20;;;16.43;;
16101;SDS011;56411;52.964;10.540;2023-04-15T05:26:17;33.67;;;16.10;;
16101;SDS011;56411;52.964;10.540;2023-04-15T05:28:47;34.77;;;17.10;;
16101;SDS011;56411;52.964;10.540;2023-04-15T05:31:14;34.77;;;16.97;;
16101;SDS011;56411;52.964;10.540;2023-04-15T05:33:41;33.60;;;17.03;;
16101;SDS011;56411;52.964;10.540;2023-04-15T05:36:08;33.53;;;17.90;;
16101;SDS011;56411;52.964;10.540;2023-04-15T05:38:36;37.83;;;19.67;;
16101;SDS011;56411;52.964;10.540;2023-04-15T05:41:03;37.67;;;19.03;;
16101;SDS011;56411;52.964;10.540;2023-04-15T05:43:30;40.50;;;20.93;;
16101;SDS011;56411;52.964;10.540;2023-04-15T05:45:59;40.00;;;20.73;;
16101;SDS011;56411;52.964;10.540;2023-04-15T05:48:26;43.90;;;22.73;;
16101;SDS011;56411;52.964;10.540;2023-04-15T05:50:53;46.80;;;24.50;;
16101;SDS011;56411;52.964;10.540;2023-04-15T05:53:20;47.20;;;23.57;;
16101;SDS011;56411;52.964;10.540;2023-04-15T05:55:47;46.67;;;24.33;;
16101;SDS011;56411;52.964;10.540;2023-04-15T05:58:14;49.33;;;24.60;;
16101;SDS011;56411;52.964;10.540;2023-04-15T06:00:42;52.03;;;25.57;;
16101;SDS011;56411;52.964;10.540;2023-04-15T06:03:11;47.73;;;24.77;;
16101;SDS011;56411;52.964;10.540;2023-04-15T06:05:38;54.13;;;27.77;;
16101;SDS011;56411;52.964;10.540;2023-04-15T06:08:06;53.47;;;26.93;;
16101;SDS011;56411;52.964;10.540;2023-04-15T06:10:33;54.80;;;28.07;;
16101;SDS011;56411;52.964;10.540;2023-04-15T06:13:01;53.63;;;26.73;;
16101;SDS011;56411;52.964;10.540;2023-04-15T06:15:28;56.10;;;28.43;;
16101;SDS011;56411;52.964;10.540;2023-04-15T06:17:55;54.83;;;27.93;;
16101;SDS011;56411;52.964;10.540;2023-04-15T06:20:24;50.37;;;26.97;;
16101;SDS011;56411;52.964;10.540;2023-04-15T06:22:52;49.53;;;25.93;;
16101;SDS011;56411;52.964;10.540;2023-04-15T06:25:19;52.60;;;27.43;;
16101;SDS011;56411;52.964;10.540;2023-04-15T06:27:46;53.10;;;27.63;;
16101;SDS011;56411;52.964;10.540;2023-04-15T06:30:13;47.57;;;25.93;;
16101;SDS011;56411;52.964;10.540;2023-04-15T06:32:40;52.00;;;27.23;;
16101;SDS011;56411;52.964;10.540;2023-04-15T06:35:08;48.03;;;25.40;;
16101;SDS011;56411;52.964;10.540;2023-04-15T06:37:37;50.80;;;26.37;;
16101;SDS011;56411;52.964;10.540;2023-04-15T06:40:04;50.00;;;25.80;;
16101;SDS011;56411;52.964;10.540;2023-04-15T06:42:34;50.97;;;25.90;;
16101;SDS011;56411;52.964;10.540;2023-04-15T06:45:02;46.37;;;26.33;;
16101;SDS011;56411;52.964;10.540;2023-04-15T06:47:30;51.03;;;26.40;;
16101;SDS011;56411;52.964;10.540;2023-04-15T06:49:57;50.90;;;26.90;;
16101;SDS011;56411;52.964;10.540;2023-04-15T06:52:25;50.17;;;26.80;;
16101;SDS011;56411;52.964;10.540;2023-04-15T06:54:53;50.03;;;25.83;;
16101;SDS011;56411;52.964;10.540;2023-04-15T06:57:21;46.60;;;26.13;;
16101;SDS011;56411;52.964;10.540;2023-04-15T06:59:48;49.80;;;24.97;;
16101;SDS011;56411;52.964;10.540;2023-04-15T07:02:16;51.83;;;26.07;;
16101;SDS011;56411;52.964;10.540;2023-04-15T07:04:43;44.17;;;23.93;;
16101;SDS011;56411;52.964;10.540;2023-04-15T07:07:10;43.17;;;23.87;;
16101;SDS011;56411;52.964;10.540;2023-04-15T07:09:37;44.23;;;23.40;;
16101;SDS011;56411;52.964;10.540;2023-04-15T07:12:06;44.83;;;23.93;;
16101;SDS011;56411;52.964;10.540;2023-04-15T07:14:33;44.80;;;23.90;;
16101;SDS011;56411;52.964;10.540;2023-04-15T07:17:00;44.63;;;23.60;;
16101;SDS011;56411;52.964;10.540;2023-04-15T07:19:27;46.27;;;24.63;;
16101;SDS011;56411;52.964;10.540;2023-04-15T07:21:55;45.07;;;23.60;;
16101;SDS011;56411;52.964;10.540;2023-04-15T07:24:22;41.10;;;22.87;;
16101;SDS011;56411;52.964;10.540;2023-04-15T07:26:51;41.50;;;24.03;;
16101;SDS011;56411;52.964;10.540;2023-04-15T07:29:20;41.03;;;22.90;;
16101;SDS011;56411;52.964;10.540;2023-04-15T07:31:47;44.83;;;23.43;;
16101;SDS011;56411;52.964;10.540;2023-04-15T07:34:14;42.63;;;24.10;;
16101;SDS011;56411;52.964;10.540;2023-04-15T07:36:41;40.00;;;23.23;;
16101;SDS011;56411;52.964;10.540;2023-04-15T07:39:08;44.50;;;23.60;;
16101;SDS011;56411;52.964;10.540;2023-04-15T07:41:36;42.20;;;23.83;;
16101;SDS011;56411;52.964;10.540;2023-04-15T07:44:03;37.90;;;21.67;;
16101;SDS011;56411;52.964;10.540;2023-04-15T07:46:33;41.93;;;23.00;;
16101;SDS011;56411;52.964;10.540;2023-04-15T07:49:01;41.33;;;23.20;;
16101;SDS011;56411;52.964;10.540;2023-04-15T07:51:28;41.53;;;23.10;;
16101;SDS011;56411;52.964;10.540;2023-04-15T07:53:56;41.87;;;22.40;;
16101;SDS011;56411;52.964;10.540;2023-04-15T07:56:23;42.23;;;23.23;;
16101;SDS011;56411;52.964;10.540;2023-04-15T07:58:50;45.47;;;23.83;;
16101;SDS011;56411;52.964;10.540;2023-04-15T08:01:18;44.40;;;24.20;;
16101;SDS011;56411;52.964;10.540;2023-04-15T08:03:47;45.10;;;23.37;;
16101;SDS011;56411;52.964;10.540;2023-04-15T08:06:14;45.20;;;24.40;;
16101;SDS011;56411;52.964;10.540;2023-04-15T08:08:41;46.13;;;24.07;;
16101;SDS011;56411;52.964;10.540;2023-04-15T08:11:08;46.97;;;24.17;;
16101;SDS011;56411;52.964;10.540;2023-04-15T08:13:35;47.37;;;25.43;;
16101;SDS011;56411;52.964;10.540;2023-04-15T08:16:14;51.03;;;26.40;;
16101;SDS011;56411;52.964;10.540;2023-04-15T08:18:44;50.70;;;26.20;;
16101;SDS011;56411;52.964;10.540;2023-04-15T08:21:12;49.13;;;25.47;;
16101;SDS011;56411;52.964;10.540;2023-04-15T08:23:40;54.97;;;27.10;;
16101;SDS011;56411;52.964;10.540;2023-04-15T08:26:07;49.37;;;26.73;;
16101;SDS011;56411;52.964;10.540;2023-04-15T08:28:35;49.13;;;25.10;;
16101;SDS011;56411;52.964;10.540;2023-04-15T08:31:03;53.30;;;27.30;;
16101;SDS011;56411;52.964;10.540;2023-04-15T08:33:30;50.20;;;26.53;;
16101;SDS011;56411;52.964;10.540;2023-04-15T08:35:57;50.93;;;28.17;;
16101;SDS011;56411;52.964;10.540;2023-04-15T08:38:26;57.00;;;28.87;;
16101;SDS011;56411;52.964;10.540;2023-04-15T08:40:53;53.57;;;28.13;;
16101;SDS011;56411;52.964;10.540;2023-04-15T08:43:23;53.43;;;28.07;;
16101;SDS011;56411;52.964;10.540;2023-04-15T08:45:54;55.93;;;28.93;;
16101;SDS011;56411;52.964;10.540;2023-04-15T08:48:24;52.63;;;27.53;;
16101;SDS011;56411;52.964;10.540;2023-04-15T08:50:54;50.27;;;26.47;;
16101;SDS011;56411;52.964;10.540;2023-04-15T08:53:22;56.47;;;28.57;;
16101;SDS011;56411;52.964;10.540;2023-04-15T08:55:52;52.70;;;28.37;;
16101;SDS011;56411;52.964;10.540;2023-04-15T08:58:22;56.17;;;29.30;;
16101;SDS011;56411;52.964;10.540;2023-04-15T09:00:50;55.30;;;28.37;;
16101;SDS011;56411;52.964;10.540;2023-04-15T09:03:18;54.10;;;29.20;;
16101;SDS011;56411;52.964;10.540;2023-04-15T09:05:47;58.97;;;28.20;;
16101;SDS011;56411;52.964;10.540;2023-04-15T09:08:16;56.97;;;30.23;;
16101;SDS011;56411;52.964;10.540;2023-04-15T09:10:43;52.53;;;28.13;;
16101;SDS011;56411;52.964;10.540;2023-04-15T09:13:12;53.30;;;27.70;;
16101;SDS011;56411;52.964;10.540;2023-04-15T09:15:39;56.20;;;28.83;;
16101;SDS011;56411;52.964;10.540;2023-04-15T09:18:07;56.00;;;28.67;;
16101;SDS011;56411;52.964;10.540;2023-04-15T09:20:37;54.30;;;28.03;;
16101;SDS011;56411;52.964;10.540;2023-04-15T09:23:15;60.37;;;28.90;;
16101;SDS011;56411;52.964;10.540;2023-04-15T09:25:42;55.27;;;28.50;;
16101;SDS011;56411;52.964;10.540;2023-04-15T09:28:12;52.83;;;28.07;;
16101;SDS011;56411;52.964;10.540;2023-04-15T09:30:39;57.03;;;27.60;;
16101;SDS011;56411;52.964;10.540;2023-04-15T09:33:10;55.17;;;27.93;;
16101;SDS011;56411;52.964;10.540;2023-04-15T09:35:40;59.33;;;30.57;;
16101;SDS011;56411;52.964;10.540;2023-04-15T09:38:08;55.13;;;28.73;;
16101;SDS011;56411;52.964;10.540;2023-04-15T09:40:37;56.60;;;29.37;;
16101;SDS011;56411;52.964;10.540;2023-04-15T09:43:06;62.37;;;31.47;;
16101;SDS011;56411;52.964;10.540;2023-04-15T09:45:38;56.30;;;26.40;;
16101;SDS011;56411;52.964;10.540;2023-04-15T09:48:14;62.37;;;29.77;;
16101;SDS011;56411;52.964;10.540;2023-04-15T09:50:45;58.77;;;29.37;;
16101;SDS011;56411;52.964;10.540;2023-04-15T09:53:15;69.03;;;33.30;;
16101;SDS011;56411;52.964;10.540;2023-04-15T09:55:44;61.87;;;29.17;;
16101;SDS011;56411;52.964;10.540;2023-04-15T09:58:18;55.67;;;28.20;;
16101;SDS011;56411;52.964;10.540;2023-04-15T10:00:47;57.30;;;25.93;;
16101;SDS011;56411;52.964;10.540;2023-04-15T10:03:15;57.77;;;29.77;;
16101;SDS011;56411;52.964;10.540;2023-04-15T10:05:46;63.33;;;31.30;;
16101;SDS011;56411;52.964;10.540;2023-04-15T10:08:15;55.80;;;28.33;;
16101;SDS011;56411;52.964;10.540;2023-04-15T10:10:44;60.97;;;30.40;;
16101;SDS011;56411;52.964;10.540;2023-04-15T10:13:13;65.93;;;32.00;;
16101;SDS011;56411;52.964;10.540;2023-04-15T10:15:43;63.77;;;31.40;;
16101;SDS011;56411;52.964;10.540;2023-04-15T10:18:16;59.53;;;31.47;;
16101;SDS011;56411;52.964;10.540;2023-04-15T10:20:45;63.53;;;30.80;;
16101;SDS011;56411;52.964;10.540;2023-04-15T10:23:14;59.23;;;30.63;;
16101;SDS011;56411;52.964;10.540;2023-04-15T10:25:42;57.73;;;29.90;;
16101;SDS011;56411;52.964;10.540;2023-04-15T10:28:09;61.00;;;31.50;;
16101;SDS011;56411;52.964;10.540;2023-04-15T10:30:37;60.60;;;30.53;;
16101;SDS011;56411;52.964;10.540;2023-04-15T10:33:04;53.93;;;28.17;;
16101;SDS011;56411;52.964;10.540;2023-04-15T10:35:34;58.67;;;30.30;;
16101;SDS011;56411;52.964;10.540;2023-04-15T10:38:06;57.40;;;29.80;;
16101;SDS011;56411;52.964;10.540;2023-04-15T10:41:07;54.53;;;28.60;;
16101;SDS011;56411;52.964;10.540;2023-04-15T10:43:39;50.30;;;27.37;;
16101;SDS011;56411;52.964;10.540;2023-04-15T10:46:11;49.03;;;26.37;;
16101;SDS011;56411;52.964;10.540;2023-04-15T10:48:45;52.60;;;28.67;;
16101;SDS011;56411;52.964;10.540;2023-04-15T10:51:15;54.47;;;29.63;;
16101;SDS011;56411;52.964;10.540;2023-04-15T10:53:54;53.00;;;28.43;;
16101;SDS011;56411;52.964;10.540;2023-04-15T10:56:22;51.23;;;29.17;;
16101;SDS011;56411;52.964;10.540;2023-04-15T10:58:50;46.50;;;27.50;;
16101;SDS011;56411;52.964;10.540;2023-04-15T11:01:18;47.80;;;27.10;;
16101;SDS011;56411;52.964;10.540;2023-04-15T11:03:47;48.10;;;27.90;;
16101;SDS011;56411;52.964;10.540;2023-04-15T11:06:16;44.17;;;25.47;;
16101;SDS011;56411;52.964;10.540;2023-04-15T11:08:53;41.17;;;25.00;;
16101;SDS011;56411;52.964;10.540;2023-04-15T11:11:37;45.67;;;26.47;;
16101;SDS011;56411;52.964;10.540;2023-04-15T11:14:31;39.80;;;24.57;;
16101;SDS011;56411;52.964;10.540;2023-04-15T11:17:00;41.70;;;25.40;;
16101;SDS011;56411;52.964;10.540;2023-04-15T11:19:34;37.33;;;21.57;;
16101;SDS011;56411;52.964;10.540;2023-04-15T11:22:07;37.67;;;22.77;;
16101;SDS011;56411;52.964;10.540;2023-04-15T11:24:34;40.17;;;25.63;;
16101;SDS011;56411;52.964;10.540;2023-04-15T11:27:02;35.63;;;23.60;;
16101;SDS011;56411;52.964;10.540;2023-04-15T11:29:29;37.55;;;23.60;;
16101;SDS011;56411;52.964;10.540;2023-04-15T11:34:44;37.42;;;23.75;;
16101;SDS011;56411;52.964;10.540;2023-04-15T11:37:14;33.08;;;21.27;;
16101;SDS011;56411;52.964;10.540;2023-04-15T11:39:41;33.05;;;21.65;;
16101;SDS011;56411;52.964;10.540;2023-04-15T11:42:15;33.05;;;21.27;;
16101;SDS011;56411;52.964;10.540;2023-04-15T11:44:42;33.85;;;21.90;;
16101;SDS011;56411;52.964;10.540;2023-04-15T11:47:20;32.67;;;20.13;;
16101;SDS011;56411;52.964;10.540;2023-04-15T11:49:48;30.42;;;20.58;;
16101;SDS011;56411;52.964;10.540;2023-04-15T11:52:17;33.47;;;21.03;;
16101;SDS011;56411;52.964;10.540;2023-04-15T11:54:44;29.40;;;20.50;;
16101;SDS011;56411;52.964;10.540;2023-04-15T11:57:12;30.05;;;20.85;;
16101;SDS011;56411;52.964;10.540;2023-04-15T11:59:42;28.85;;;19.88;;
16101;SDS011;56411;52.964;10.540;2023-04-15T12:02:13;27.70;;;19.63;;
16101;SDS011;56411;52.964;10.540;2023-04-15T12:04:43;28.95;;;18.90;;
16101;SDS011;56411;52.964;10.540;2023-04-15T12:07:11;26.73;;;18.92;;
16101;SDS011;56411;52.964;10.540;2023-04-15T12:09:41;28.10;;;19.80;;
16101;SDS011;56411;52.964;10.540;2023-04-15T12:12:09;30.90;;;19.25;;
16101;SDS011;56411;52.964;10.540;2023-04-15T12:14:39;27.58;;;20.02;;
16101;SDS011;56411;52.964;10.540;2023-04-15T12:17:12;27.73;;;19.70;;
16101;SDS011;56411;52.964;10.540;2023-04-15T12:19:54;25.88;;;18.52;;
16101;SDS011;56411;52.964;10.540;2023-04-15T12:22:23;25.33;;;17.88;;
16101;SDS011;56411;52.964;10.540;2023-04-15T12:25:08;24.77;;;18.10;;
16101;SDS011;56411;52.964;10.540;2023-04-15T12:27:56;25.48;;;18.50;;
16101;SDS011;56411;52.964;10.540;2023-04-15T12:30:47;25.92;;;17.80;;
16101;SDS011;56411;52.964;10.540;2023-04-15T12:33:15;24.90;;;16.98;;
16101;SDS011;56411;52.964;10.540;2023-04-15T12:35:42;25.00;;;18.00;;
16101;SDS011;56411;52.964;10.540;2023-04-15T12:38:09;23.33;;;17.17;;
16101;SDS011;56411;52.964;10.540;2023-04-15T12:40:38;24.83;;;18.08;;
16101;SDS011;56411;52.964;10.540;2023-04-15T12:43:05;23.10;;;15.73;;
16101;SDS011;56411;52.964;10.540;2023-04-15T12:45:32;21.40;;;16.77;;
16101;SDS011;56411;52.964;10.540;2023-04-15T12:47:59;22.42;;;16.15;;
16101;SDS011;56411;52.964;10.540;2023-04-15T12:50:27;21.17;;;15.90;;
16101;SDS011;56411;52.964;10.540;2023-04-15T12:52:54;21.55;;;15.85;;
16101;SDS011;56411;52.964;10.540;2023-04-15T12:55:21;20.90;;;15.00;;
16101;SDS011;56411;52.964;10.540;2023-04-15T12:57:49;20.92;;;15.35;;
16101;SDS011;56411;52.964;10.540;2023-04-15T13:00:17;21.35;;;14.65;;
16101;SDS011;56411;52.964;10.540;2023-04-15T13:02:44;22.48;;;15.10;;
16101;SDS011;56411;52.964;10.540;2023-04-15T13:05:11;22.10;;;16.00;;
16101;SDS011;56411;52.964;10.540;2023-04-15T13:07:39;21.23;;;15.18;;
16101;SDS011;56411;52.964;10.540;2023-04-15T13:10:07;21.35;;;15.05;;
16101;SDS011;56411;52.964;10.540;2023-04-15T13:12:35;19.92;;;13.38;;
16101;SDS011;56411;52.964;10.540;2023-04-15T13:15:04;18.27;;;12.88;;
16101;SDS011;56411;52.964;10.540;2023-04-15T13:17:33;17.55;;;12.57;;
16101;SDS011;56411;52.964;10.540;2023-04-15T13:20:07;18.30;;;12.55;;
16101;SDS011;56411;52.964;10.540;2023-04-15T13:22:36;19.25;;;12.40;;
16101;SDS011;56411;52.964;10.540;2023-04-15T13:25:05;18.05;;;12.38;;
16101;SDS011;56411;52.964;10.540;2023-04-15T13:27:36;18.58;;;12.35;;
16101;SDS011;56411;52.964;10.540;2023-04-15T13:30:14;18.45;;;11.43;;
16101;SDS011;56411;52.964;10.540;2023-04-15T13:32:45;17.70;;;12.00;;
16101;SDS011;56411;52.964;10.540;2023-04-15T13:35:13;18.42;;;12.15;;
16101;SDS011;56411;52.964;10.540;2023-04-15T13:37:44;18.20;;;12.07;;
16101;SDS011;56411;52.964;10.540;2023-04-15T13:40:12;17.00;;;11.75;;
16101;SDS011;56411;52.964;10.540;2023-04-15T13:42:40;19.80;;;12.82;;
16101;SDS011;56411;52.964;10.540;2023-04-15T13:45:17;17.95;;;12.10;;
16101;SDS011;56411;52.964;10.540;2023-04-15T13:47:54;20.15;;;13.15;;
16101;SDS011;56411;52.964;10.540;2023-04-15T13:50:25;19.75;;;13.25;;
16101;SDS011;56411;52.964;10.540;2023-04-15T13:52:53;18.85;;;13.43;;
16101;SDS011;56411;52.964;10.540;2023-04-15T13:55:20;19.33;;;12.23;;
16101;SDS011;56411;52.964;10.540;2023-04-15T13:57:48;18.67;;;13.25;;
16101;SDS011;56411;52.964;10.540;2023-04-15T14:00:17;20.58;;;13.45;;
16101;SDS011;56411;52.964;10.540;2023-04-15T14:02:44;17.73;;;13.15;;
16101;SDS011;56411;52.964;10.540;2023-04-15T14:05:12;19.98;;;13.93;;
16101;SDS011;56411;52.964;10.540;2023-04-15T14:07:39;18.13;;;12.77;;
16101;SDS011;56411;52.964;10.540;2023-04-15T14:10:07;19.13;;;13.30;;
16101;SDS011;56411;52.964;10.540;2023-04-15T14:12:34;19.10;;;12.98;;
16101;SDS011;56411;52.964;10.540;2023-04-15T14:15:01;19.52;;;12.85;;
16101;SDS011;56411;52.964;10.540;2023-04-15T14:17:39;20.13;;;13.07;;
16101;SDS011;56411;52.964;10.540;2023-04-15T14:20:08;18.65;;;12.68;;
16101;SDS011;56411;52.964;10.540;2023-04-15T14:22:35;18.58;;;12.68;;